createdAt,value
2022-08-01T00:01:34.206Z,48.95
2022-08-01T00:04:02.745Z,49.11
2022-08-01T00:06:31.117Z,49.18
2022-08-01T00:08:59.643Z,49.52
2022-08-01T00:11:28.103Z,49.68
2022-08-01T00:13:57.869Z,49.52
2022-08-01T00:16:26.174Z,49.94
2022-08-01T00:18:54.896Z,50.31
2022-08-01T00:21:23.508Z,50.30
2022-08-01T00:23:51.814Z,50.31
2022-08-01T00:26:21.523Z,50.41
2022-08-01T00:28:49.848Z,50.82
2022-08-01T00:31:19.497Z,50.55
2022-08-01T00:33:49.776Z,51.08
2022-08-01T00:36:18.199Z,51.14
2022-08-01T00:38:46.903Z,51.09
2022-08-01T00:41:15.268Z,51.57
2022-08-01T00:43:43.669Z,51.36
2022-08-01T00:46:12.137Z,51.91
2022-08-01T00:48:41.891Z,51.87
2022-08-01T00:51:10.907Z,51.80
2022-08-01T00:53:51.938Z,52.05
2022-08-01T00:56:22.928Z,52.15
2022-08-01T00:58:52.801Z,52.24
2022-08-01T01:01:22.839Z,52.19
2022-08-01T01:03:59.030Z,52.46
2022-08-01T01:06:43.860Z,52.41
2022-08-01T01:09:25.876Z,52.72
2022-08-01T01:12:14.182Z,52.73
2022-08-01T01:14:52.971Z,53.19
2022-08-01T01:17:49.519Z,53.63
2022-08-01T01:20:22.529Z,53.55
2022-08-01T01:23:12.380Z,53.69
2022-08-01T01:26:03.197Z,53.65
2022-08-01T01:28:43.458Z,53.92
2022-08-01T01:31:15.470Z,54.13
2022-08-01T01:33:45.347Z,54.31
2022-08-01T01:36:18.765Z,54.63
2022-08-01T01:38:49.071Z,54.51
2022-08-01T01:41:20.020Z,54.65
2022-08-01T01:43:50.156Z,54.63
2022-08-01T01:46:27.939Z,54.50
2022-08-01T01:48:58.737Z,55.03
2022-08-01T01:51:29.378Z,55.32
2022-08-01T01:53:59.862Z,55.62
2022-08-01T01:56:30.056Z,55.62
2022-08-01T01:59:03.003Z,55.76
2022-08-01T02:02:06.033Z,56.17
2022-08-01T02:04:26.482Z,56.40
2022-08-01T02:06:56.704Z,56.51
2022-08-01T02:09:28.539Z,56.84
2022-08-01T02:12:08.868Z,56.94
2022-08-01T02:14:40.923Z,57.20
2022-08-01T02:17:13.037Z,56.91
2022-08-01T02:19:41.819Z,57.37
2022-08-01T02:22:18.769Z,57.12
2022-08-01T02:24:54.337Z,57.16
2022-08-01T02:27:30.626Z,57.25
2022-08-01T02:30:03.323Z,57.39
2022-08-01T02:32:38.487Z,57.48
2022-08-01T02:35:11.631Z,57.64
2022-08-01T02:37:45.150Z,57.58
2022-08-01T02:40:18.258Z,57.81
2022-08-01T02:42:51.745Z,57.73
2022-08-01T02:45:22.636Z,57.73
2022-08-01T02:47:53.752Z,57.85
2022-08-01T02:50:24.603Z,57.98
2022-08-01T02:52:54.741Z,58.16
2022-08-01T02:55:23.648Z,58.24
2022-08-01T02:57:58.431Z,58.39
2022-08-01T03:00:31.779Z,58.54
2022-08-01T03:03:03.508Z,58.85
2022-08-01T03:05:33.935Z,58.96
2022-08-01T03:08:03.999Z,59.01
2022-08-01T03:10:34.686Z,59.26
2022-08-01T03:13:05.068Z,59.54
2022-08-01T03:15:38.324Z,59.81
2022-08-01T03:18:11.228Z,59.47
2022-08-01T03:20:40.084Z,59.75
2022-08-01T03:23:11.987Z,59.86
2022-08-01T03:25:43.611Z,59.82
2022-08-01T03:28:16.094Z,59.99
2022-08-01T03:30:45.891Z,60.16
2022-08-01T03:33:15.735Z,60.11
2022-08-01T03:35:50.325Z,60.13
2022-08-01T03:38:23.536Z,60.02
2022-08-01T03:40:57.645Z,59.79
2022-08-01T03:43:36.333Z,60.04
2022-08-01T03:46:09.642Z,60.01
2022-08-01T03:48:44.888Z,59.98
2022-08-01T03:51:14.627Z,60.31
2022-08-01T03:53:45.872Z,60.08
2022-08-01T03:56:20.013Z,60.04
2022-08-01T03:58:50.264Z,60.07
2022-08-01T04:01:20.355Z,60.04
2022-08-01T04:03:50.803Z,60.06
2022-08-01T04:06:19.414Z,60.08
2022-08-01T04:08:56.647Z,59.94
2022-08-01T04:11:26.748Z,59.94
2022-08-01T04:13:56.020Z,60.01
2022-08-01T04:16:26.179Z,60.02
2022-08-01T04:18:55.847Z,59.82
2022-08-01T04:21:29.682Z,60.03
2022-08-01T04:24:02.095Z,60.06
2022-08-01T04:26:32.279Z,60.06
2022-08-01T04:29:03.478Z,60.10
2022-08-01T04:31:33.420Z,60.03
2022-08-01T04:34:06.435Z,60.11
2022-08-01T04:36:37.804Z,60.19
2022-08-01T04:39:08.078Z,60.16
2022-08-01T04:41:37.829Z,60.34
2022-08-01T04:44:07.775Z,60.30
2022-08-01T04:46:37.862Z,60.28
2022-08-01T04:49:12.787Z,60.14
2022-08-01T04:51:53.349Z,60.24
2022-08-01T04:54:22.432Z,60.24
2022-08-01T04:56:51.558Z,60.46
2022-08-01T04:59:37.340Z,60.54
2022-08-01T05:02:05.940Z,60.45
2022-08-01T05:04:37.464Z,60.58
2022-08-01T05:07:06.199Z,60.33
2022-08-01T05:09:34.989Z,60.43
2022-08-01T05:12:04.658Z,60.74
2022-08-01T05:14:33.763Z,60.93
2022-08-01T05:17:04.130Z,60.91
2022-08-01T05:19:33.824Z,61.26
2022-08-01T05:22:06.441Z,61.27
2022-08-01T05:24:35.987Z,61.11
2022-08-01T05:27:07.468Z,61.17
2022-08-01T05:29:39.252Z,61.52
2022-08-01T05:32:10.320Z,61.31
2022-08-01T05:34:38.653Z,61.38
2022-08-01T05:37:09.121Z,61.19
2022-08-01T05:39:37.483Z,61.19
2022-08-01T05:42:06.414Z,61.24
2022-08-01T05:44:34.996Z,61.50
2022-08-01T05:47:03.702Z,61.50
2022-08-01T05:49:32.200Z,61.25
2022-08-01T05:52:02.098Z,61.25
2022-08-01T05:54:31.929Z,61.28
2022-08-01T05:57:02.731Z,61.21
2022-08-01T05:59:32.144Z,61.07
2022-08-01T06:02:00.807Z,61.14
2022-08-01T06:04:29.358Z,61.12
2022-08-01T06:06:57.887Z,61.14
2022-08-01T06:09:26.168Z,61.34
2022-08-01T06:11:55.860Z,61.03
2022-08-01T06:14:24.181Z,61.14
2022-08-01T06:16:52.542Z,61.00
2022-08-01T06:19:20.800Z,60.85
2022-08-01T06:21:49.135Z,61.18
2022-08-01T06:24:17.577Z,60.85
2022-08-01T06:26:45.861Z,60.95
2022-08-01T06:29:15.537Z,60.81
2022-08-01T06:31:43.837Z,60.73
2022-08-01T06:34:12.131Z,60.44
2022-08-01T06:36:40.499Z,60.52
2022-08-01T06:39:08.889Z,60.29
2022-08-01T06:41:37.254Z,60.18
2022-08-01T06:44:06.787Z,60.11
2022-08-01T06:46:37.335Z,60.08
2022-08-01T06:49:05.854Z,59.69
2022-08-01T06:51:34.287Z,59.77
2022-08-01T06:54:02.645Z,59.66
2022-08-01T06:56:31.045Z,59.55
2022-08-01T06:59:01.853Z,59.34
2022-08-01T07:01:31.223Z,58.81
2022-08-01T07:04:05.235Z,58.66
2022-08-01T07:06:33.612Z,58.14
2022-08-01T07:09:09.437Z,57.92
2022-08-01T07:11:40.572Z,57.49
2022-08-01T07:14:08.980Z,57.55
2022-08-01T07:16:37.307Z,56.71
2022-08-01T07:19:07.140Z,56.50
2022-08-01T07:21:40.589Z,56.20
2022-08-01T07:24:14.489Z,56.17
2022-08-01T07:26:52.500Z,56.04
2022-08-01T07:29:25.294Z,56.06
2022-08-01T07:31:54.117Z,56.27
2022-08-01T07:34:24.672Z,55.41
2022-08-01T07:36:53.968Z,55.38
2022-08-01T07:39:22.815Z,54.92
2022-08-01T07:42:05.890Z,54.42
2022-08-01T07:44:36.188Z,54.13
2022-08-01T07:47:05.480Z,54.25
2022-08-01T07:49:40.055Z,53.94
2022-08-01T07:52:09.669Z,54.22
2022-08-01T07:54:37.967Z,54.12
2022-08-01T07:57:07.359Z,54.32
2022-08-01T07:59:36.276Z,54.27
2022-08-01T08:02:05.478Z,54.14
2022-08-01T08:04:35.565Z,53.72
2022-08-01T08:07:04.434Z,53.97
2022-08-01T08:09:37.465Z,53.54
2022-08-01T08:12:08.856Z,53.56
2022-08-01T08:14:37.361Z,53.37
2022-08-01T08:17:06.491Z,52.69
2022-08-01T08:19:39.041Z,52.51
2022-08-01T08:22:09.499Z,51.91
2022-08-01T08:24:46.656Z,51.59
2022-08-01T08:27:15.535Z,51.10
2022-08-01T08:29:44.135Z,50.71
2022-08-01T08:32:13.619Z,49.96
2022-08-01T08:34:43.617Z,49.21
2022-08-01T08:37:12.400Z,49.11
2022-08-01T08:39:42.131Z,49.17
2022-08-01T08:42:12.265Z,49.40
2022-08-01T08:44:43.854Z,49.54
2022-08-01T08:47:19.848Z,49.54
2022-08-01T08:49:53.337Z,49.53
2022-08-01T08:52:22.927Z,49.33
2022-08-01T08:54:53.625Z,49.54
2022-08-01T08:57:23.259Z,49.10
2022-08-01T08:59:55.044Z,49.11
2022-08-01T09:02:23.814Z,49.05
2022-08-01T09:04:53.677Z,49.10
2022-08-01T09:07:23.760Z,48.83
2022-08-01T09:09:52.723Z,48.57
2022-08-01T09:12:22.173Z,48.36
2022-08-01T09:14:54.299Z,48.45
2022-08-01T09:17:23.443Z,48.61
2022-08-01T09:19:55.812Z,48.65
2022-08-01T09:22:27.784Z,48.48
2022-08-01T09:25:07.069Z,48.63
2022-08-01T09:27:36.516Z,48.49
2022-08-01T09:30:19.253Z,48.64
2022-08-01T09:32:57.913Z,48.43
2022-08-01T09:35:31.769Z,48.21
2022-08-01T09:38:24.302Z,48.08
2022-08-01T09:40:54.978Z,47.70
2022-08-01T09:43:27.180Z,47.46
2022-08-01T09:45:57.975Z,46.80
2022-08-01T09:48:29.796Z,46.21
2022-08-01T09:51:07.382Z,45.69
2022-08-01T09:53:51.408Z,44.97
2022-08-01T09:56:22.817Z,45.22
2022-08-01T09:58:59.345Z,45.23
2022-08-01T10:01:37.158Z,44.44
2022-08-01T10:04:12.844Z,43.60
2022-08-01T10:06:45.074Z,41.85
2022-08-01T10:09:16.110Z,40.62
2022-08-01T10:11:45.476Z,39.67
2022-08-01T10:14:18.284Z,39.24
2022-08-01T10:16:53.801Z,38.99
2022-08-01T10:19:33.886Z,40.16
2022-08-01T10:22:07.110Z,40.74
2022-08-01T10:24:40.397Z,40.83
2022-08-01T10:27:12.431Z,39.94
2022-08-01T10:30:05.188Z,39.58
2022-08-01T10:32:36.838Z,39.38
2022-08-01T10:35:14.950Z,38.58
2022-08-01T10:37:52.018Z,38.89
2022-08-01T10:40:31.238Z,38.83
2022-08-01T10:43:00.775Z,38.45
2022-08-01T10:45:30.268Z,37.95
2022-08-01T10:48:08.222Z,37.74
2022-08-01T10:50:44.550Z,36.98
2022-08-01T10:53:31.296Z,36.74
2022-08-01T10:56:12.893Z,36.62
2022-08-01T10:58:46.667Z,36.57
2022-08-01T11:01:28.860Z,36.40
2022-08-01T11:04:16.861Z,35.74
2022-08-01T11:07:05.006Z,35.22
2022-08-01T11:09:44.341Z,34.73
2022-08-01T11:12:24.933Z,33.92
2022-08-01T11:15:29.594Z,34.02
2022-08-01T11:18:05.459Z,33.84
2022-08-01T11:20:41.981Z,33.91
2022-08-01T11:23:23.450Z,34.74
2022-08-01T11:26:12.461Z,34.52
2022-08-01T11:28:50.381Z,34.18
2022-08-01T11:31:37.376Z,33.39
2022-08-01T11:34:07.253Z,32.77
2022-08-01T11:36:58.261Z,32.99
2022-08-01T11:39:24.573Z,32.30
2022-08-01T11:41:55.627Z,32.43
2022-08-01T11:44:30.336Z,32.35
2022-08-01T11:47:09.238Z,32.48
2022-08-01T11:49:55.837Z,32.73
2022-08-01T11:52:30.958Z,32.67
2022-08-01T11:55:10.351Z,32.42
2022-08-01T11:57:41.192Z,32.81
2022-08-01T12:00:16.599Z,32.32
2022-08-01T12:02:46.825Z,32.14
2022-08-01T12:05:21.419Z,32.43
2022-08-01T12:07:56.042Z,32.73
2022-08-01T12:10:26.572Z,33.27
2022-08-01T12:13:01.886Z,33.37
2022-08-01T12:15:34.510Z,33.20
2022-08-01T12:18:05.594Z,32.92
2022-08-01T12:20:38.226Z,32.89
2022-08-01T12:23:13.260Z,32.90
2022-08-01T12:25:44.702Z,33.13
2022-08-01T12:28:15.134Z,33.75
2022-08-01T12:30:44.253Z,33.75
2022-08-01T12:33:18.726Z,33.73
2022-08-01T12:35:47.621Z,33.61
2022-08-01T12:38:18.930Z,33.62
2022-08-01T12:40:53.060Z,33.97
2022-08-01T12:43:27.816Z,34.77
2022-08-01T12:45:59.307Z,35.05
2022-08-01T12:48:28.949Z,34.91
2022-08-01T12:51:01.398Z,35.01
2022-08-01T12:53:40.821Z,34.76
2022-08-01T12:56:12.384Z,34.44
2022-08-01T12:58:42.406Z,34.05
2022-08-01T13:01:14.163Z,33.89
2022-08-01T13:03:43.269Z,34.23
2022-08-01T13:06:17.237Z,33.71
2022-08-01T13:08:47.708Z,33.38
2022-08-01T13:11:19.009Z,33.09
2022-08-01T13:13:51.196Z,33.01
2022-08-01T13:16:31.012Z,33.09
2022-08-01T13:19:10.065Z,33.28
2022-08-01T13:21:53.721Z,33.25
2022-08-01T13:24:27.858Z,33.26
2022-08-01T13:26:59.786Z,33.34
2022-08-01T13:29:35.398Z,33.71
2022-08-01T13:32:27.838Z,33.62
2022-08-01T13:35:04.950Z,33.45
2022-08-01T13:37:33.284Z,33.63
2022-08-01T13:40:01.743Z,33.49
2022-08-01T13:42:31.197Z,34.01
2022-08-01T13:45:00.977Z,33.41
2022-08-01T13:47:32.532Z,33.65
2022-08-01T13:50:03.868Z,33.86
2022-08-01T13:52:33.380Z,33.91
2022-08-01T13:55:02.550Z,33.95
2022-08-01T13:57:36.204Z,34.66
2022-08-01T14:00:10.662Z,34.29
2022-08-01T14:02:42.005Z,34.52
2022-08-01T14:05:10.912Z,35.14
2022-08-01T14:07:39.302Z,34.70
2022-08-01T14:10:19.453Z,35.15
2022-08-01T14:12:49.557Z,35.49
2022-08-01T14:15:39.277Z,35.42
2022-08-01T14:18:10.656Z,35.41
2022-08-01T14:20:40.955Z,35.58
2022-08-01T14:23:09.656Z,35.39
2022-08-01T14:26:01.668Z,35.14
2022-08-01T14:28:29.013Z,35.36
2022-08-01T14:30:59.654Z,36.02
2022-08-01T14:33:28.656Z,35.81
2022-08-01T14:36:05.510Z,35.38
2022-08-01T14:38:36.157Z,35.69
2022-08-01T14:41:04.855Z,35.34
2022-08-01T14:43:34.198Z,35.53
2022-08-01T14:46:05.124Z,35.30
2022-08-01T14:48:33.741Z,34.80
2022-08-01T14:51:03.748Z,34.67
2022-08-01T14:53:35.648Z,34.75
2022-08-01T14:56:05.387Z,34.66
2022-08-01T14:58:33.978Z,34.53
2022-08-01T15:01:05.383Z,34.31
2022-08-01T15:03:33.963Z,34.74
2022-08-01T15:06:03.290Z,34.65
2022-08-01T15:08:33.242Z,34.19
2022-08-01T15:11:02.998Z,34.04
2022-08-01T15:13:31.325Z,33.83
2022-08-01T15:16:00.936Z,33.73
2022-08-01T15:18:30.803Z,33.73
2022-08-01T15:21:02.922Z,33.64
2022-08-01T15:23:31.286Z,33.08
2022-08-01T15:25:59.713Z,33.20
2022-08-01T15:28:28.077Z,33.19
2022-08-01T15:30:56.587Z,32.80
2022-08-01T15:33:25.624Z,33.12
2022-08-01T15:35:55.608Z,33.24
2022-08-01T15:38:25.345Z,34.01
2022-08-01T15:40:53.775Z,34.10
2022-08-01T15:43:22.309Z,34.75
2022-08-01T15:45:50.993Z,34.58
2022-08-01T15:48:19.595Z,34.15
2022-08-01T15:50:49.771Z,34.66
2022-08-01T15:53:19.621Z,34.85
2022-08-01T15:55:52.294Z,34.96
2022-08-01T15:58:21.540Z,35.00
2022-08-01T16:00:50.081Z,34.93
2022-08-01T16:03:18.706Z,35.12
2022-08-01T16:05:47.185Z,35.08
2022-08-01T16:08:15.980Z,35.47
2022-08-01T16:10:45.991Z,36.11
2022-08-01T16:13:14.669Z,36.47
2022-08-01T16:15:43.263Z,37.34
2022-08-01T16:18:14.522Z,37.71
2022-08-01T16:20:45.945Z,38.21
2022-08-01T16:23:16.157Z,38.29
2022-08-01T16:25:46.312Z,39.14
2022-08-01T16:28:14.984Z,39.31
2022-08-01T16:30:54.024Z,39.79
2022-08-01T16:33:51.529Z,40.12
2022-08-01T16:36:22.010Z,40.56
2022-08-01T16:38:53.177Z,40.36
2022-08-01T16:41:22.934Z,40.58
2022-08-01T16:43:54.027Z,40.62
2022-08-01T16:46:26.846Z,40.66
2022-08-01T16:48:56.005Z,40.98
2022-08-01T16:51:24.565Z,40.83
2022-08-01T16:53:52.993Z,40.74
2022-08-01T16:56:23.042Z,41.19
2022-08-01T16:58:51.682Z,41.02
2022-08-01T17:01:57.942Z,41.34
2022-08-01T17:04:08.864Z,41.33
2022-08-01T17:06:37.412Z,41.64
2022-08-01T17:09:06.849Z,41.94
2022-08-01T17:11:36.596Z,42.04
2022-08-01T17:14:05.642Z,42.50
2022-08-01T17:16:34.061Z,42.52
2022-08-01T17:19:03.699Z,42.83
2022-08-01T17:21:32.248Z,43.01
2022-08-01T17:24:00.665Z,43.02
2022-08-01T17:26:29.086Z,43.39
2022-08-01T17:28:59.169Z,43.76
2022-08-01T17:31:27.565Z,43.95
2022-08-01T17:33:55.943Z,44.27
2022-08-01T17:36:24.454Z,44.72
2022-08-01T17:38:52.899Z,44.95
2022-08-01T17:41:21.445Z,44.84
2022-08-01T17:43:49.845Z,44.90
2022-08-01T17:46:19.685Z,45.18
2022-08-01T17:48:48.274Z,45.14
2022-08-01T17:51:22.459Z,45.23
2022-08-01T17:53:57.276Z,45.24
2022-08-01T17:56:27.046Z,45.46
2022-08-01T17:58:56.128Z,45.48
2022-08-01T18:01:26.808Z,45.71
2022-08-01T18:03:57.619Z,45.85
2022-08-01T18:06:27.370Z,46.05
2022-08-01T18:08:59.597Z,46.40
2022-08-01T18:11:37.057Z,46.39
2022-08-01T18:14:06.731Z,46.62
2022-08-01T18:16:36.528Z,46.68
2022-08-01T18:19:06.936Z,46.56
2022-08-01T18:21:37.601Z,46.88
2022-08-01T18:24:09.977Z,47.21
2022-08-01T18:26:38.361Z,47.54
2022-08-01T18:29:07.705Z,47.50
2022-08-01T18:31:37.915Z,47.76
2022-08-01T18:34:06.547Z,47.62
2022-08-01T18:36:35.109Z,47.74
2022-08-01T18:39:10.828Z,48.29
2022-08-01T18:41:40.033Z,48.30
2022-08-01T18:44:09.107Z,48.47
2022-08-01T18:46:40.844Z,48.71
2022-08-01T18:49:12.900Z,48.56
2022-08-01T18:51:44.626Z,48.87
2022-08-01T18:54:14.895Z,49.04
2022-08-01T18:56:45.456Z,49.41
2022-08-01T18:59:14.996Z,49.64
2022-08-01T19:01:45.628Z,49.92
2022-08-01T19:04:14.314Z,50.64
2022-08-01T19:06:43.278Z,51.02
2022-08-01T19:09:20.717Z,51.34
2022-08-01T19:11:49.601Z,51.71
2022-08-01T19:14:18.196Z,51.92
2022-08-01T19:16:48.448Z,52.29
2022-08-01T19:19:27.463Z,52.51
2022-08-01T19:21:56.713Z,52.56
2022-08-01T19:24:25.744Z,53.25
2022-08-01T19:26:57.342Z,53.07
2022-08-01T19:29:35.232Z,53.78
2022-08-01T19:32:10.275Z,53.57
2022-08-01T19:34:49.465Z,53.54
2022-08-01T19:37:18.025Z,53.95
2022-08-01T19:39:46.670Z,54.50
2022-08-01T19:42:15.841Z,54.67
2022-08-01T19:44:46.173Z,54.77
2022-08-01T19:47:18.245Z,54.79
2022-08-01T19:49:47.135Z,55.39
2022-08-01T19:52:20.261Z,55.22
2022-08-01T19:54:51.655Z,56.18
2022-08-01T19:57:21.326Z,56.04
2022-08-01T19:59:52.557Z,56.51
2022-08-01T20:02:22.774Z,56.58
2022-08-01T20:04:51.293Z,56.66
2022-08-01T20:07:19.718Z,56.79
2022-08-01T20:09:50.761Z,57.13
2022-08-01T20:12:23.753Z,56.87
2022-08-01T20:14:54.788Z,57.64
2022-08-01T20:17:25.301Z,57.83
2022-08-01T20:19:53.989Z,57.86
2022-08-01T20:22:30.548Z,57.50
2022-08-01T20:25:00.873Z,58.08
2022-08-01T20:27:31.919Z,57.89
2022-08-01T20:30:01.923Z,58.38
2022-08-01T20:32:40.211Z,57.91
2022-08-01T20:35:10.193Z,58.37
2022-08-01T20:38:06.243Z,58.29
2022-08-01T20:40:30.101Z,58.23
2022-08-01T20:42:59.410Z,58.25
2022-08-01T20:45:28.600Z,58.74
2022-08-01T20:47:59.564Z,58.65
2022-08-01T20:50:55.020Z,58.09
2022-08-01T20:53:23.936Z,58.11
2022-08-01T20:56:01.315Z,58.12
2022-08-01T20:58:58.935Z,58.10
2022-08-01T21:01:31.252Z,58.03
2022-08-01T21:04:15.628Z,57.63
2022-08-01T21:06:50.994Z,58.04
2022-08-01T21:09:24.598Z,57.54
2022-08-01T21:12:03.381Z,57.65
2022-08-01T21:14:50.343Z,57.33
2022-08-01T21:17:27.885Z,57.43
2022-08-01T21:20:08.704Z,57.70
2022-08-01T21:22:52.688Z,57.59
2022-08-01T21:25:27.597Z,57.19
2022-08-01T21:27:56.859Z,57.25
2022-08-01T21:30:26.323Z,57.62
2022-08-01T21:32:55.716Z,57.20
2022-08-01T21:35:28.014Z,57.59
2022-08-01T21:37:59.310Z,57.40
2022-08-01T21:40:27.885Z,57.60
2022-08-01T21:42:56.851Z,57.21
2022-08-01T21:45:28.138Z,57.29
2022-08-01T21:47:58.466Z,57.45
2022-08-01T21:50:31.733Z,57.67
2022-08-01T21:53:11.888Z,57.37
2022-08-01T21:55:55.750Z,57.31
2022-08-01T21:58:34.240Z,57.43
2022-08-01T22:01:11.541Z,57.76
2022-08-01T22:03:47.396Z,57.94
2022-08-01T22:06:20.416Z,57.77
2022-08-01T22:08:53.070Z,57.86
2022-08-01T22:11:24.309Z,57.97
2022-08-01T22:13:56.045Z,57.83
2022-08-01T22:16:26.858Z,58.29
2022-08-01T22:18:55.750Z,58.04
2022-08-01T22:21:28.618Z,57.73
2022-08-01T22:23:58.845Z,57.76
2022-08-01T22:26:29.411Z,58.12
2022-08-01T22:28:58.113Z,58.00
2022-08-01T22:31:26.990Z,57.85
2022-08-01T22:33:55.805Z,58.35
2022-08-01T22:36:25.692Z,58.20
2022-08-01T22:38:54.098Z,58.18
2022-08-01T22:41:31.078Z,58.17
2022-08-01T22:44:27.697Z,58.31
2022-08-01T22:47:08.024Z,58.39
2022-08-01T22:49:44.543Z,58.39
2022-08-01T22:52:20.189Z,58.51
2022-08-01T22:54:52.961Z,58.48
2022-08-01T22:57:30.234Z,58.48
2022-08-01T23:00:03.526Z,58.55
2022-08-01T23:02:34.929Z,59.07
2022-08-01T23:05:07.369Z,58.70
2022-08-01T23:07:42.275Z,58.77
2022-08-01T23:10:11.779Z,59.15
2022-08-01T23:12:41.362Z,59.03
2022-08-01T23:15:12.677Z,59.14
2022-08-01T23:17:43.506Z,59.17
2022-08-01T23:20:13.466Z,59.12
2022-08-01T23:22:44.424Z,59.07
2022-08-01T23:25:15.883Z,59.44
2022-08-01T23:27:54.341Z,59.42
2022-08-01T23:30:35.797Z,59.46
2022-08-01T23:33:04.945Z,59.62
2022-08-01T23:35:36.908Z,59.85
2022-08-01T23:38:10.830Z,59.88
2022-08-01T23:40:39.865Z,59.89
2022-08-01T23:43:16.921Z,60.26
2022-08-01T23:46:03.572Z,60.41
2022-08-01T23:48:34.943Z,60.49
2022-08-01T23:51:04.211Z,60.62
2022-08-01T23:53:35.945Z,60.62
2022-08-01T23:56:07.218Z,60.80
2022-08-01T23:58:36.037Z,60.76
